Strona główna
METAR-TAF:

METAR-TAF

Lotnisko :

Port lotniczy Lima-Jorge Chávez

Lima, Peru

Szerokość geograficzna: 12-00S, Długość geograficzna: 077-07W, wysokość: 12 m

Aktualna obserwacja pogody

Raport powstał 30 minut temu, godzina 22:00 UTC
Wiatr 6 kt od południe
Temperatura 21°C
Wilgotność 83%
Ciśnienie 1012 hPa
Widzialność 10 km lub więcej
Przerywane chmury na wysokości 3000 ft

METAR: SPJC 122200Z 17006KT 9999 BKN030 21/18 Q1012 NOSIG RMK TX 23.0 PP000

czas: 17:30 (22:30 UTC)

Prognoza

Raport powstał 5 godziny i 30 minut temu, godzina 17:00 UTC
Prognoza ważna od 12 godzina 18 UTC do 13 godzina 18 UTC
Wiatr 9 kt od południe
Widzialność 10 km lub więcej
Zachmurzenie całkowite na wysokości 4000 ft
Od 13 godzina 0600 UTC
Wiatr 5 kt od południowo-południowy wschód
Widzialność 10 km lub więcej
Rozproszone chmury na wysokości 1000 ft
Zachmurzenie całkowite na wysokości 1700 ft

TAF: SPJC 121700Z 1218/1318 18009KT 9999 OVC040 TX22/1219Z TN19/1311Z FM130600 16005KT 9999 SCT010 OVC017

Obserwacja i prognoza pogody dla ponad 4000 lotnisk (raport METAR i TAF).

Dostępne stacje oznaczono żółtymi i czerwonymi punktami na mapie.

Najedź kursorem aby zobaczyć nazwę stacji.

Kliknij aby zobaczyć obserwacje i prognozy pogody.

Aby zmienić mapę: kliknij na zielony przycisk z czarnym krzyżykiem, aby powiększyć; na zielony przycisk z myślnikiem, aby pomniejszyć; na zielone strzałki, aby przejść do map sąsiednich.


METAR-TAF: